createdAt,value
2022-11-17T00:00:22.882Z,10.26
2022-11-17T00:02:52.294Z,10.30
2022-11-17T00:05:20.575Z,10.29
2022-11-17T00:07:49.091Z,10.36
2022-11-17T00:10:18.339Z,10.43
2022-11-17T00:13:04.157Z,10.40
2022-11-17T00:15:32.186Z,10.34
2022-11-17T00:18:18.812Z,10.31
2022-11-17T00:21:04.077Z,10.24
2022-11-17T00:23:47.364Z,10.23
2022-11-17T00:26:16.585Z,10.30
2022-11-17T00:28:44.573Z,10.36
2022-11-17T00:31:30.892Z,10.42
2022-11-17T00:34:06.064Z,10.40
2022-11-17T00:36:36.663Z,10.42
2022-11-17T00:39:05.420Z,10.35
2022-11-17T00:41:33.528Z,10.35
2022-11-17T00:44:01.474Z,10.34
2022-11-17T00:46:29.446Z,10.25
2022-11-17T00:48:57.517Z,10.13
2022-11-17T00:51:27.068Z,10.22
2022-11-17T00:53:55.055Z,10.32
2022-11-17T00:56:23.176Z,10.32
2022-11-17T00:58:51.263Z,10.26
2022-11-17T01:01:19.605Z,10.35
2022-11-17T01:03:47.584Z,10.43
2022-11-17T01:06:17.703Z,10.53
2022-11-17T01:08:47.764Z,10.50
2022-11-17T01:11:17.504Z,10.36
2022-11-17T01:13:46.504Z,10.27
2022-11-17T01:16:16.161Z,10.34
2022-11-17T01:18:45.989Z,10.19
2022-11-17T01:21:15.853Z,10.11
2022-11-17T01:23:48.471Z,10.16
2022-11-17T01:26:18.295Z,10.27
2022-11-17T01:28:46.639Z,10.23
2022-11-17T01:31:15.995Z,10.30
2022-11-17T01:33:44.717Z,10.41
2022-11-17T01:36:15.948Z,10.39
2022-11-17T01:38:44.453Z,10.39
2022-11-17T01:41:18.789Z,10.46
2022-11-17T01:43:49.030Z,10.50
2022-11-17T01:46:38.754Z,10.40
2022-11-17T01:49:14.338Z,10.60
2022-11-17T01:51:47.005Z,10.58
2022-11-17T01:54:18.423Z,10.64
2022-11-17T01:56:51.274Z,10.70
2022-11-17T01:59:24.276Z,10.66
2022-11-17T02:01:56.698Z,10.64
2022-11-17T02:04:27.092Z,10.47
2022-11-17T02:07:02.288Z,10.53
2022-11-17T02:09:30.700Z,10.52
2022-11-17T02:12:00.256Z,10.52
2022-11-17T02:14:28.234Z,10.57
2022-11-17T02:16:56.225Z,10.56
2022-11-17T02:19:28.246Z,10.51
2022-11-17T02:22:24.879Z,10.51
2022-11-17T02:25:09.180Z,10.41
2022-11-17T02:27:54.808Z,10.24
2022-11-17T02:30:24.681Z,10.27
2022-11-17T02:33:03.528Z,10.33
2022-11-17T02:35:41.524Z,10.22
2022-11-17T02:38:23.837Z,10.23
2022-11-17T02:40:58.385Z,10.27
2022-11-17T02:43:51.249Z,10.38
2022-11-17T02:46:21.888Z,10.31
2022-11-17T02:48:54.535Z,10.41
2022-11-17T02:51:25.364Z,10.46
2022-11-17T02:53:55.465Z,10.42
2022-11-17T02:56:23.577Z,10.42
2022-11-17T02:58:57.677Z,10.36
2022-11-17T03:01:32.864Z,10.59
2022-11-17T03:04:18.896Z,10.68
2022-11-17T03:06:57.730Z,10.75
2022-11-17T03:09:38.473Z,10.73
2022-11-17T03:12:13.219Z,10.44
2022-11-17T03:14:52.653Z,10.53
2022-11-17T03:17:27.883Z,10.51
2022-11-17T03:20:01.994Z,10.41
2022-11-17T03:22:33.519Z,10.57
2022-11-17T03:25:06.213Z,10.71
2022-11-17T03:27:38.317Z,10.77
2022-11-17T03:30:10.525Z,10.83
2022-11-17T03:32:41.321Z,10.83
2022-11-17T03:35:12.424Z,10.72
2022-11-17T03:37:50.844Z,10.72
2022-11-17T03:40:22.184Z,10.73
2022-11-17T03:42:54.120Z,10.68
2022-11-17T03:45:26.869Z,10.71
2022-11-17T03:48:00.513Z,10.78
2022-11-17T03:50:34.143Z,10.92
2022-11-17T03:53:03.341Z,10.85
2022-11-17T03:55:38.315Z,10.69
2022-11-17T03:58:10.580Z,10.80
2022-11-17T04:00:42.073Z,10.75
2022-11-17T04:03:10.254Z,10.80
2022-11-17T04:05:38.157Z,10.61
2022-11-17T04:08:06.191Z,10.62
2022-11-17T04:10:54.122Z,10.49
2022-11-17T04:13:39.485Z,10.68
2022-11-17T04:16:09.235Z,10.80
2022-11-17T04:18:37.162Z,10.84
2022-11-17T04:21:05.307Z,10.87
2022-11-17T04:23:33.483Z,11.00
2022-11-17T04:26:18.982Z,10.86
2022-11-17T04:28:48.856Z,10.46
2022-11-17T04:31:19.835Z,10.47
2022-11-17T04:33:49.235Z,10.40
2022-11-17T04:36:18.775Z,10.37
2022-11-17T04:38:48.107Z,10.25
2022-11-17T04:41:35.284Z,10.13
2022-11-17T04:44:04.218Z,9.98
2022-11-17T04:46:35.712Z,10.01
2022-11-17T04:49:04.402Z,10.06
2022-11-17T04:51:33.004Z,10.18
2022-11-17T04:54:01.508Z,10.17
2022-11-17T04:56:30.049Z,10.23
2022-11-17T04:58:58.173Z,10.19
2022-11-17T05:01:27.699Z,10.19
2022-11-17T05:03:58.789Z,10.05
2022-11-17T05:06:28.720Z,10.06
2022-11-17T05:08:57.909Z,9.95
2022-11-17T05:11:44.859Z,10.23
2022-11-17T05:14:14.265Z,10.31
2022-11-17T05:17:04.528Z,10.36
2022-11-17T05:19:40.880Z,10.08
2022-11-17T05:22:23.928Z,10.19
2022-11-17T05:24:52.050Z,10.30
2022-11-17T05:27:20.235Z,10.36
2022-11-17T05:29:48.178Z,10.40
2022-11-17T05:32:16.127Z,10.38
2022-11-17T05:34:45.505Z,10.32
2022-11-17T05:37:13.583Z,10.38
2022-11-17T05:39:41.519Z,10.43
2022-11-17T05:42:09.491Z,10.53
2022-11-17T05:44:37.468Z,10.60
2022-11-17T05:47:05.446Z,10.61
2022-11-17T05:49:33.382Z,10.74
2022-11-17T05:52:02.833Z,10.92
2022-11-17T05:54:30.757Z,11.03
2022-11-17T05:57:02.585Z,11.00
2022-11-17T05:59:35.768Z,11.00
2022-11-17T06:02:08.060Z,10.95
2022-11-17T06:04:36.167Z,10.97
2022-11-17T06:07:05.673Z,11.14
2022-11-17T06:09:35.856Z,11.22
2022-11-17T06:12:06.232Z,11.20
2022-11-17T06:14:35.617Z,11.30
2022-11-17T06:17:07.698Z,11.45
2022-11-17T06:19:38.509Z,11.60
2022-11-17T06:22:13.154Z,11.73
2022-11-17T06:24:44.028Z,11.89
2022-11-17T06:27:13.151Z,11.94
2022-11-17T06:29:44.610Z,11.95
2022-11-17T06:32:14.269Z,12.04
2022-11-17T06:34:49.128Z,12.12
2022-11-17T06:37:21.522Z,12.16
2022-11-17T06:39:49.504Z,12.32
2022-11-17T06:42:17.470Z,12.42
2022-11-17T06:44:45.458Z,12.45
2022-11-17T06:47:13.459Z,12.56
2022-11-17T06:49:41.402Z,12.53
2022-11-17T06:52:11.129Z,12.47
2022-11-17T06:54:40.529Z,12.47
2022-11-17T06:57:08.546Z,12.37
2022-11-17T06:59:36.563Z,12.42
2022-11-17T07:02:04.547Z,12.41
2022-11-17T07:04:32.671Z,12.50
2022-11-17T07:07:00.733Z,12.57
2022-11-17T07:09:28.787Z,12.68
2022-11-17T07:11:58.830Z,12.83
2022-11-17T07:14:26.806Z,12.78
2022-11-17T07:16:54.819Z,12.87
2022-11-17T07:19:22.830Z,12.85
2022-11-17T07:21:50.900Z,12.90
2022-11-17T07:24:18.987Z,13.02
2022-11-17T07:26:47.115Z,13.00
2022-11-17T07:29:16.559Z,13.16
2022-11-17T07:31:44.649Z,13.18
2022-11-17T07:34:12.646Z,13.34
2022-11-17T07:36:40.685Z,13.37
2022-11-17T07:39:08.711Z,13.34
2022-11-17T07:41:36.729Z,13.22
2022-11-17T07:44:05.114Z,13.20
2022-11-17T07:46:34.487Z,13.18
2022-11-17T07:49:02.522Z,13.22
2022-11-17T07:51:30.503Z,13.09
2022-11-17T07:53:58.658Z,13.15
2022-11-17T07:56:26.701Z,13.20
2022-11-17T07:58:55.249Z,13.23
2022-11-17T08:01:23.336Z,13.11
2022-11-17T08:03:52.840Z,13.01
2022-11-17T08:06:21.211Z,12.96
2022-11-17T08:08:49.881Z,12.93
2022-11-17T08:11:18.133Z,12.96
2022-11-17T08:13:46.404Z,12.88
2022-11-17T08:16:14.988Z,12.87
2022-11-17T08:18:48.830Z,12.97
2022-11-17T08:21:21.333Z,13.02
2022-11-17T08:23:52.386Z,13.06
2022-11-17T08:26:21.701Z,13.07
2022-11-17T08:28:53.703Z,12.97
2022-11-17T08:31:26.121Z,13.02
2022-11-17T08:33:54.157Z,12.98
2022-11-17T08:36:23.711Z,12.89
2022-11-17T08:38:51.736Z,12.89
2022-11-17T08:41:20.019Z,12.95
2022-11-17T08:43:48.007Z,12.85
2022-11-17T08:46:15.980Z,12.73
2022-11-17T08:48:43.970Z,12.83
2022-11-17T08:51:15.058Z,12.91
2022-11-17T08:53:47.429Z,12.84
2022-11-17T08:56:15.433Z,12.79
2022-11-17T08:58:45.176Z,12.86
2022-11-17T09:01:15.806Z,12.92
2022-11-17T09:03:45.303Z,12.94
2022-11-17T09:06:13.972Z,12.91
2022-11-17T09:08:46.071Z,12.83
2022-11-17T09:11:16.850Z,13.05
2022-11-17T09:13:45.854Z,13.00
2022-11-17T09:16:14.018Z,12.96
2022-11-17T09:18:42.397Z,12.98
2022-11-17T09:21:12.620Z,12.89
2022-11-17T09:23:40.773Z,12.99
2022-11-17T09:26:10.158Z,13.09
2022-11-17T09:28:40.013Z,13.16
2022-11-17T09:31:09.352Z,13.21
2022-11-17T09:33:38.101Z,13.17
2022-11-17T09:36:07.730Z,13.19
2022-11-17T09:38:36.406Z,13.27
2022-11-17T09:41:13.281Z,13.25
2022-11-17T09:43:47.369Z,13.30
2022-11-17T09:46:18.309Z,13.37
2022-11-17T09:48:53.369Z,13.43
2022-11-17T09:51:26.438Z,13.47
2022-11-17T09:54:02.903Z,13.55
2022-11-17T09:56:31.972Z,13.53
2022-11-17T09:59:04.421Z,13.62
2022-11-17T10:01:32.409Z,13.62
2022-11-17T10:04:01.567Z,13.72
2022-11-17T10:06:31.971Z,13.61
2022-11-17T10:09:02.978Z,13.80
2022-11-17T10:11:33.380Z,13.87
2022-11-17T10:14:13.926Z,13.96
2022-11-17T10:16:44.818Z,13.87
2022-11-17T10:19:19.069Z,13.87
2022-11-17T10:21:50.222Z,13.87
2022-11-17T10:24:36.417Z,13.83
2022-11-17T10:27:05.895Z,13.81
2022-11-17T10:29:35.260Z,13.85
2022-11-17T10:32:15.316Z,14.05
2022-11-17T10:34:43.290Z,14.08
2022-11-17T10:37:30.568Z,13.98
2022-11-17T10:40:24.770Z,13.92
2022-11-17T10:43:03.048Z,14.01
2022-11-17T10:45:33.615Z,13.87
2022-11-17T10:48:19.976Z,14.05
2022-11-17T10:50:53.350Z,14.00
2022-11-17T10:53:24.991Z,13.76
2022-11-17T10:55:59.479Z,13.86
2022-11-17T10:58:29.048Z,13.88
2022-11-17T11:01:00.145Z,13.96
2022-11-17T11:03:30.774Z,13.96
2022-11-17T11:06:09.835Z,14.03
2022-11-17T11:08:51.437Z,13.96
2022-11-17T11:11:32.038Z,13.99
2022-11-17T11:14:13.414Z,13.84
2022-11-17T11:16:48.044Z,13.75
2022-11-17T11:19:17.882Z,13.62
2022-11-17T11:21:58.745Z,13.78
2022-11-17T11:24:35.979Z,13.92
2022-11-17T11:27:17.878Z,13.66
2022-11-17T11:29:56.965Z,13.88
2022-11-17T11:32:39.158Z,13.90
2022-11-17T11:35:38.665Z,13.78
2022-11-17T11:38:31.601Z,14.02
2022-11-17T11:41:16.181Z,14.14
2022-11-17T11:43:59.510Z,13.99
2022-11-17T11:46:37.693Z,13.98
2022-11-17T11:49:18.177Z,14.04
2022-11-17T11:51:50.001Z,14.08
2022-11-17T11:54:40.131Z,14.16
2022-11-17T11:57:13.550Z,14.13
2022-11-17T11:59:49.389Z,14.23
2022-11-17T12:02:28.415Z,14.20
2022-11-17T12:05:06.801Z,14.19
2022-11-17T12:07:42.980Z,14.15
2022-11-17T12:10:17.404Z,14.21
2022-11-17T12:12:47.108Z,14.35
2022-11-17T12:15:37.095Z,14.42
2022-11-17T12:18:14.878Z,14.54
2022-11-17T12:21:06.561Z,14.59
2022-11-17T12:23:50.073Z,14.73
2022-11-17T12:26:23.570Z,14.74
2022-11-17T12:29:32.688Z,14.76
2022-11-17T12:32:02.332Z,14.82
2022-11-17T12:34:32.738Z,14.72
2022-11-17T12:37:19.148Z,14.67
2022-11-17T12:40:02.072Z,14.65
2022-11-17T12:42:31.506Z,14.60
2022-11-17T12:45:08.791Z,14.64
2022-11-17T12:47:38.566Z,14.75
2022-11-17T12:50:42.261Z,14.80
2022-11-17T12:53:25.395Z,14.75
2022-11-17T12:56:15.608Z,14.82
2022-11-17T12:58:58.590Z,14.74
2022-11-17T13:01:41.613Z,14.70
2022-11-17T13:04:13.246Z,14.76
2022-11-17T13:06:59.839Z,14.64
2022-11-17T13:09:29.881Z,14.50
2022-11-17T13:12:04.211Z,14.55
2022-11-17T13:14:32.875Z,14.52
2022-11-17T13:17:03.275Z,14.55
2022-11-17T13:19:37.747Z,14.34
2022-11-17T13:22:14.785Z,14.38
2022-11-17T13:24:45.061Z,14.21
2022-11-17T13:27:21.789Z,14.25
2022-11-17T13:29:49.987Z,14.10
2022-11-17T13:32:22.151Z,13.99
2022-11-17T13:34:52.824Z,13.63
2022-11-17T13:37:23.556Z,13.84
2022-11-17T13:39:59.905Z,13.73
2022-11-17T13:42:31.184Z,13.45
2022-11-17T13:45:02.164Z,13.43
2022-11-17T13:47:46.531Z,13.40
2022-11-17T13:50:39.977Z,13.35
2022-11-17T13:53:24.161Z,13.36
2022-11-17T13:55:53.159Z,13.34
2022-11-17T13:58:29.873Z,13.15
2022-11-17T14:00:59.792Z,13.17
2022-11-17T14:03:40.018Z,13.00
2022-11-17T14:06:10.573Z,13.00
2022-11-17T14:08:39.937Z,12.98
2022-11-17T14:11:22.484Z,12.94
2022-11-17T14:13:52.424Z,12.92
2022-11-17T14:16:24.987Z,12.82
2022-11-17T14:19:00.247Z,12.94
2022-11-17T14:21:28.658Z,12.89
2022-11-17T14:24:11.523Z,12.76
2022-11-17T14:26:44.543Z,12.87
2022-11-17T14:29:13.807Z,12.72
2022-11-17T14:31:41.764Z,12.74
2022-11-17T14:34:11.107Z,12.56
2022-11-17T14:36:40.012Z,12.48
2022-11-17T14:39:14.891Z,12.44
2022-11-17T14:41:43.339Z,12.57
2022-11-17T14:44:11.372Z,12.66
2022-11-17T14:46:39.326Z,12.53
2022-11-17T14:49:07.757Z,12.57
2022-11-17T14:51:37.378Z,12.63
2022-11-17T14:54:05.581Z,12.52
2022-11-17T14:56:34.809Z,12.25
2022-11-17T14:59:02.760Z,12.31
2022-11-17T15:01:32.507Z,12.22
2022-11-17T15:04:20.614Z,12.34
2022-11-17T15:06:51.881Z,12.38
2022-11-17T15:09:20.681Z,12.34
2022-11-17T15:11:48.920Z,12.32
2022-11-17T15:14:17.064Z,12.22
2022-11-17T15:16:45.237Z,12.15
2022-11-17T15:19:13.433Z,11.93
2022-11-17T15:21:41.532Z,11.77
2022-11-17T15:24:10.879Z,11.70
2022-11-17T15:26:38.874Z,11.60
2022-11-17T15:29:07.550Z,11.63
2022-11-17T15:31:35.871Z,11.58
2022-11-17T15:34:03.843Z,11.77
2022-11-17T15:36:32.011Z,11.95
2022-11-17T15:38:59.957Z,11.92
2022-11-17T15:41:32.877Z,11.95
2022-11-17T15:44:01.239Z,11.81
2022-11-17T15:46:29.247Z,11.68
2022-11-17T15:48:57.285Z,11.57
2022-11-17T15:51:27.160Z,11.61
2022-11-17T15:54:00.254Z,11.50
2022-11-17T15:56:30.784Z,11.46
2022-11-17T15:59:01.752Z,11.52
2022-11-17T16:01:30.951Z,11.46
2022-11-17T16:04:00.977Z,11.48
2022-11-17T16:06:29.366Z,11.43
2022-11-17T16:08:57.673Z,11.44
2022-11-17T16:11:27.125Z,11.50
2022-11-17T16:13:57.631Z,11.25
2022-11-17T16:16:27.178Z,11.36
2022-11-17T16:18:55.398Z,11.22
2022-11-17T16:21:23.340Z,11.27
2022-11-17T16:23:53.246Z,11.36
2022-11-17T16:26:22.221Z,11.44
2022-11-17T16:28:50.725Z,11.19
2022-11-17T16:31:22.032Z,11.28
2022-11-17T16:33:51.394Z,11.22
2022-11-17T16:36:20.334Z,10.86
2022-11-17T16:39:00.718Z,10.77
2022-11-17T16:41:32.203Z,10.82
2022-11-17T16:44:00.689Z,10.48
2022-11-17T16:46:31.699Z,10.62
2022-11-17T16:49:02.941Z,10.77
2022-11-17T16:51:31.419Z,10.85
2022-11-17T16:54:01.015Z,10.90
2022-11-17T16:56:29.602Z,10.70
2022-11-17T16:58:58.724Z,10.73
2022-11-17T17:01:28.606Z,10.67
2022-11-17T17:03:58.694Z,10.63
2022-11-17T17:06:26.744Z,10.35
2022-11-17T17:08:55.588Z,10.36
2022-11-17T17:11:23.887Z,10.45
2022-11-17T17:13:52.035Z,10.59
2022-11-17T17:16:21.362Z,10.54
2022-11-17T17:18:49.702Z,10.57
2022-11-17T17:21:20.252Z,10.52
2022-11-17T17:23:48.205Z,10.41
2022-11-17T17:26:18.488Z,10.04
2022-11-17T17:28:48.497Z,10.03
2022-11-17T17:31:21.388Z,10.00
2022-11-17T17:33:50.719Z,10.05
2022-11-17T17:36:21.829Z,9.87
2022-11-17T17:38:55.392Z,10.01
2022-11-17T17:41:24.651Z,10.01
2022-11-17T17:43:57.126Z,9.94
2022-11-17T17:46:26.094Z,9.75
2022-11-17T17:48:54.218Z,9.90
2022-11-17T17:51:25.086Z,9.94
2022-11-17T17:53:53.527Z,9.77
2022-11-17T17:56:22.574Z,9.69
2022-11-17T17:58:51.934Z,9.87
2022-11-17T18:01:22.062Z,9.71
2022-11-17T18:03:51.293Z,9.49
2022-11-17T18:06:21.126Z,9.67
2022-11-17T18:08:50.822Z,9.75
2022-11-17T18:11:20.817Z,9.81
2022-11-17T18:13:50.261Z,9.82
2022-11-17T18:16:20.954Z,9.69
2022-11-17T18:18:49.345Z,9.71
2022-11-17T18:21:20.187Z,9.61
2022-11-17T18:23:48.226Z,9.55
2022-11-17T18:26:20.015Z,9.66
2022-11-17T18:28:52.654Z,9.54
2022-11-17T18:31:21.393Z,9.50
2022-11-17T18:33:52.368Z,9.53
2022-11-17T18:36:21.269Z,9.51
2022-11-17T18:38:51.069Z,9.55
2022-11-17T18:41:21.863Z,9.51
2022-11-17T18:43:50.365Z,9.37
2022-11-17T18:46:19.950Z,9.22
2022-11-17T18:48:49.494Z,9.10
2022-11-17T18:51:20.583Z,9.11
2022-11-17T18:53:49.294Z,9.23
2022-11-17T18:56:19.438Z,9.32
2022-11-17T18:58:49.118Z,9.23
2022-11-17T19:01:18.990Z,9.37
2022-11-17T19:03:48.756Z,9.34
2022-11-17T19:06:17.899Z,9.26
2022-11-17T19:08:46.179Z,9.04
2022-11-17T19:11:14.274Z,9.05
2022-11-17T19:13:43.591Z,9.01
2022-11-17T19:16:14.512Z,8.91
2022-11-17T19:18:43.186Z,8.96
2022-11-17T19:21:13.848Z,9.08
2022-11-17T19:23:47.988Z,9.04
2022-11-17T19:26:20.904Z,9.21
2022-11-17T19:28:49.167Z,9.22
2022-11-17T19:31:20.013Z,9.15
2022-11-17T19:33:49.524Z,9.19
2022-11-17T19:36:18.919Z,9.17
2022-11-17T19:38:49.988Z,8.97
2022-11-17T19:41:20.134Z,8.95
2022-11-17T19:43:48.344Z,8.95
2022-11-17T19:46:18.663Z,8.86
2022-11-17T19:48:46.798Z,8.94
2022-11-17T19:51:20.924Z,9.05
2022-11-17T19:53:49.701Z,9.18
2022-11-17T19:56:17.838Z,9.27
2022-11-17T19:58:46.554Z,9.22
2022-11-17T20:01:16.803Z,9.22
2022-11-17T20:03:47.195Z,9.16
2022-11-17T20:06:16.838Z,9.16
2022-11-17T20:08:44.895Z,9.03
2022-11-17T20:11:15.141Z,9.14
2022-11-17T20:13:43.138Z,9.21
2022-11-17T20:16:13.277Z,9.11
2022-11-17T20:18:41.810Z,9.16
2022-11-17T20:21:14.031Z,9.33
2022-11-17T20:23:43.550Z,9.32
2022-11-17T20:26:14.107Z,9.37
2022-11-17T20:28:42.348Z,9.32
2022-11-17T20:31:12.313Z,9.30
2022-11-17T20:33:41.831Z,9.36
2022-11-17T20:36:13.821Z,9.38
2022-11-17T20:38:41.841Z,9.24
2022-11-17T20:41:10.127Z,8.98
2022-11-17T20:43:38.160Z,9.08
2022-11-17T20:46:06.291Z,9.25
2022-11-17T20:48:35.682Z,9.24
2022-11-17T20:51:05.301Z,9.26
2022-11-17T20:53:35.391Z,9.27
2022-11-17T20:56:06.032Z,9.21
2022-11-17T20:58:34.863Z,9.09
2022-11-17T21:01:09.505Z,8.80
2022-11-17T21:03:37.849Z,9.00
2022-11-17T21:06:06.526Z,9.02
2022-11-17T21:08:37.656Z,9.08
2022-11-17T21:11:07.923Z,9.00
2022-11-17T21:13:37.798Z,8.80
2022-11-17T21:16:08.280Z,8.97
2022-11-17T21:18:38.406Z,9.02
2022-11-17T21:21:09.114Z,8.86
2022-11-17T21:23:39.711Z,8.85
2022-11-17T21:26:08.656Z,8.76
2022-11-17T21:28:38.327Z,8.79
2022-11-17T21:31:08.674Z,8.99
2022-11-17T21:33:37.378Z,8.82
2022-11-17T21:36:06.750Z,8.98
2022-11-17T21:38:35.012Z,9.05
2022-11-17T21:41:05.213Z,9.17
2022-11-17T21:43:33.377Z,9.15
2022-11-17T21:46:05.681Z,9.13
2022-11-17T21:48:34.520Z,8.52
2022-11-17T21:51:02.446Z,8.33
2022-11-17T21:53:31.013Z,8.58
2022-11-17T21:56:02.515Z,8.76
2022-11-17T21:58:31.865Z,8.54
2022-11-17T22:00:59.896Z,8.48
2022-11-17T22:03:28.321Z,8.50
2022-11-17T22:06:02.063Z,8.46
2022-11-17T22:08:30.384Z,8.43
2022-11-17T22:10:58.327Z,8.51
2022-11-17T22:13:26.266Z,8.19
2022-11-17T22:15:55.582Z,7.95
2022-11-17T22:18:23.561Z,7.83
2022-11-17T22:20:52.539Z,8.05
2022-11-17T22:23:20.454Z,8.11
2022-11-17T22:25:54.486Z,8.23
2022-11-17T22:28:22.523Z,8.28
2022-11-17T22:30:51.007Z,8.34
2022-11-17T22:33:20.421Z,8.41
2022-11-17T22:35:48.528Z,8.47
2022-11-17T22:38:17.109Z,8.37
2022-11-17T22:40:45.513Z,8.29
2022-11-17T22:43:15.391Z,8.43
2022-11-17T22:45:44.038Z,8.54
2022-11-17T22:48:11.968Z,8.61
2022-11-17T22:50:41.273Z,8.59
2022-11-17T22:53:09.299Z,8.57
2022-11-17T22:55:37.432Z,8.48
2022-11-17T22:58:05.541Z,8.36
2022-11-17T23:00:33.731Z,7.80
2022-11-17T23:03:01.693Z,7.63
2022-11-17T23:05:30.585Z,7.55
2022-11-17T23:07:59.885Z,7.29
2022-11-17T23:10:27.820Z,7.37
2022-11-17T23:12:56.048Z,7.63
2022-11-17T23:15:23.989Z,7.69
2022-11-17T23:17:51.915Z,7.69
2022-11-17T23:20:19.886Z,7.71
2022-11-17T23:22:47.802Z,7.67
2022-11-17T23:25:17.189Z,7.61
2022-11-17T23:27:45.117Z,7.69
2022-11-17T23:30:14.193Z,7.35
2022-11-17T23:32:42.113Z,6.94
2022-11-17T23:35:10.524Z,7.05
2022-11-17T23:37:38.443Z,7.19
2022-11-17T23:40:07.311Z,7.42
2022-11-17T23:42:42.713Z,7.53
2022-11-17T23:45:12.902Z,7.59
2022-11-17T23:47:40.901Z,7.51
2022-11-17T23:50:09.798Z,7.33
2022-11-17T23:52:37.713Z,7.04
2022-11-17T23:55:06.133Z,7.31
2022-11-17T23:57:34.049Z,7.44
